createdAt,value
2023-07-18T00:00:26.260Z,99.99
2023-07-18T00:01:26.417Z,99.53
2023-07-18T00:02:26.249Z,99.53
2023-07-18T00:03:26.283Z,99.94
2023-07-18T00:04:26.214Z,99.74
2023-07-18T00:05:49.236Z,99.94
2023-07-18T00:06:25.252Z,99.13
2023-07-18T00:07:25.253Z,99.53
2023-07-18T00:08:27.723Z,99.43
2023-07-18T00:09:25.735Z,98.92
2023-07-18T00:10:25.215Z,99.99
2023-07-18T00:11:25.245Z,99.84
2023-07-18T00:12:25.733Z,99.94
2023-07-18T00:13:25.718Z,99.99
2023-07-18T00:14:25.151Z,99.53
2023-07-18T00:15:25.253Z,99.84
2023-07-18T00:16:25.227Z,99.99
2023-07-18T00:17:25.163Z,99.99
2023-07-18T00:18:25.126Z,99.99
2023-07-18T00:19:25.098Z,99.99
2023-07-18T00:20:25.103Z,99.63
2023-07-18T00:21:31.713Z,99.84
2023-07-18T00:22:25.067Z,99.74
2023-07-18T00:23:27.140Z,99.02
2023-07-18T00:24:25.724Z,99.33
2023-07-18T00:25:25.079Z,99.13
2023-07-18T00:26:25.721Z,99.43
2023-07-18T00:27:29.803Z,98.82
2023-07-18T00:28:25.725Z,99.53
2023-07-18T00:29:25.004Z,99.22
2023-07-18T00:30:24.961Z,99.02
2023-07-18T00:31:25.033Z,99.02
2023-07-18T00:32:27.730Z,99.43
2023-07-18T00:33:24.938Z,99.22
2023-07-18T00:34:24.940Z,99.43
2023-07-18T00:35:25.729Z,99.13
2023-07-18T00:36:24.921Z,99.63
2023-07-18T00:37:28.779Z,99.33
2023-07-18T00:38:27.728Z,99.13
2023-07-18T00:39:25.758Z,99.43
2023-07-18T00:40:31.724Z,99.33
2023-07-18T00:41:25.761Z,99.22
2023-07-18T00:42:24.853Z,99.33
2023-07-18T00:43:31.725Z,99.53
2023-07-18T00:44:24.816Z,99.63
2023-07-18T00:45:24.790Z,99.74
2023-07-18T00:46:24.805Z,99.53
2023-07-18T00:47:25.763Z,99.53
2023-07-18T00:48:27.727Z,99.02
2023-07-18T00:49:25.723Z,99.02
2023-07-18T00:50:25.735Z,99.13
2023-07-18T00:51:24.768Z,99.22
2023-07-18T00:52:24.750Z,99.22
2023-07-18T00:53:31.225Z,99.02
2023-07-18T00:54:31.258Z,98.97
2023-07-18T00:55:24.762Z,98.92
2023-07-18T00:56:24.699Z,99.38
2023-07-18T00:57:31.220Z,99.18
2023-07-18T00:58:24.667Z,99.28
2023-07-18T00:59:27.228Z,99.58
2023-07-18T01:00:24.653Z,99.08
2023-07-18T01:01:24.813Z,99.28
2023-07-18T01:02:24.743Z,99.18
2023-07-18T01:03:27.303Z,99.49
2023-07-18T01:04:24.677Z,98.97
2023-07-18T01:05:27.229Z,99.28
2023-07-18T01:06:24.758Z,99.49
2023-07-18T01:07:24.625Z,99.38
2023-07-18T01:08:25.611Z,99.49
2023-07-18T01:09:24.533Z,99.38
2023-07-18T01:10:27.242Z,98.88
2023-07-18T01:11:24.546Z,98.97
2023-07-18T01:12:27.249Z,99.08
2023-07-18T01:13:25.223Z,99.18
2023-07-18T01:14:24.764Z,98.68
2023-07-18T01:15:24.510Z,99.18
2023-07-18T01:16:25.277Z,99.49
2023-07-18T01:17:39.252Z,99.38
2023-07-18T01:18:24.462Z,99.38
2023-07-18T01:19:24.446Z,98.92
2023-07-18T01:20:25.223Z,98.97
2023-07-18T01:21:24.407Z,99.18
2023-07-18T01:22:24.389Z,99.28
2023-07-18T01:23:27.229Z,99.18
2023-07-18T01:24:24.407Z,99.18
2023-07-18T01:25:24.358Z,99.63
2023-07-18T01:26:24.367Z,99.43
2023-07-18T01:27:24.342Z,99.53
2023-07-18T01:28:24.335Z,99.33
2023-07-18T01:29:27.230Z,99.53
2023-07-18T01:30:24.340Z,99.33
2023-07-18T01:31:24.355Z,99.33
2023-07-18T01:32:27.249Z,99.43
2023-07-18T01:33:27.231Z,99.22
2023-07-18T01:34:24.289Z,99.53
2023-07-18T01:35:31.238Z,99.43
2023-07-18T01:36:26.318Z,99.43
2023-07-18T01:37:26.278Z,99.33
2023-07-18T01:38:24.729Z,99.33
2023-07-18T01:39:24.243Z,98.82
2023-07-18T01:40:26.782Z,99.13
2023-07-18T01:41:24.219Z,99.43
2023-07-18T01:42:24.190Z,99.63
2023-07-18T01:43:26.727Z,98.62
2023-07-18T01:44:24.265Z,99.43
2023-07-18T01:45:24.175Z,99.02
2023-07-18T01:46:24.164Z,99.13
2023-07-18T01:47:27.775Z,98.52
2023-07-18T01:48:24.266Z,98.62
2023-07-18T01:49:26.754Z,99.13
2023-07-18T01:50:24.256Z,99.13
2023-07-18T01:51:24.107Z,99.22
2023-07-18T01:52:24.054Z,99.13
2023-07-18T01:53:24.273Z,99.02
2023-07-18T01:54:24.068Z,99.13
2023-07-18T01:55:24.085Z,98.82
2023-07-18T01:56:30.732Z,99.02
2023-07-18T01:57:24.002Z,99.22
2023-07-18T01:58:24.010Z,98.72
2023-07-18T01:59:23.997Z,99.84
2023-07-18T02:00:24.731Z,99.43
2023-07-18T02:01:24.030Z,99.33
2023-07-18T02:02:24.065Z,99.33
2023-07-18T02:03:24.008Z,99.43
2023-07-18T02:04:23.954Z,99.53
2023-07-18T02:05:23.926Z,99.02
2023-07-18T02:06:25.745Z,98.72
2023-07-18T02:07:23.918Z,99.02
2023-07-18T02:08:23.901Z,99.02
2023-07-18T02:09:23.876Z,99.02
2023-07-18T02:10:24.736Z,99.99
2023-07-18T02:11:24.737Z,99.38
2023-07-18T02:12:23.850Z,99.27
2023-07-18T02:13:23.836Z,99.53
2023-07-18T02:14:23.870Z,99.22
2023-07-18T02:15:24.739Z,99.48
2023-07-18T02:16:26.768Z,99.07
2023-07-18T02:17:26.767Z,99.63
2023-07-18T02:18:24.731Z,99.38
2023-07-18T02:19:25.813Z,99.38
2023-07-18T02:20:23.758Z,99.38
2023-07-18T02:21:25.828Z,99.17
2023-07-18T02:22:24.234Z,99.27
2023-07-18T02:23:24.245Z,99.27
2023-07-18T02:24:23.706Z,99.58
2023-07-18T02:25:23.719Z,98.86
2023-07-18T02:26:23.781Z,99.99
2023-07-18T02:27:26.237Z,99.99
2023-07-18T02:28:23.670Z,99.27
2023-07-18T02:29:24.254Z,99.38
2023-07-18T02:30:23.682Z,98.86
2023-07-18T02:31:24.305Z,99.17
2023-07-18T02:32:23.777Z,99.38
2023-07-18T02:33:23.771Z,99.27
2023-07-18T02:34:23.611Z,99.99
2023-07-18T02:35:23.610Z,99.17
2023-07-18T02:36:23.761Z,99.58
2023-07-18T02:37:24.245Z,99.07
2023-07-18T02:38:23.550Z,99.52
2023-07-18T02:39:23.549Z,99.58
2023-07-18T02:40:23.774Z,99.48
2023-07-18T02:41:23.525Z,99.38
2023-07-18T02:42:30.235Z,99.68
2023-07-18T02:43:23.528Z,99.52
2023-07-18T02:44:23.516Z,99.88
2023-07-18T02:45:44.806Z,99.48
2023-07-18T02:46:26.288Z,99.38
2023-07-18T02:47:23.490Z,98.86
2023-07-18T02:48:30.247Z,98.86
2023-07-18T02:49:24.243Z,99.48
2023-07-18T02:50:23.451Z,99.58
2023-07-18T02:51:23.472Z,99.27
2023-07-18T02:52:23.399Z,99.17
2023-07-18T02:53:23.415Z,99.48
2023-07-18T02:54:23.374Z,99.27
2023-07-18T02:55:23.366Z,99.68
2023-07-18T02:56:23.379Z,99.58
2023-07-18T02:57:24.292Z,99.48
2023-07-18T02:58:26.248Z,99.99
2023-07-18T02:59:24.233Z,99.99
2023-07-18T03:00:23.350Z,99.58
2023-07-18T03:01:24.319Z,99.68
2023-07-18T03:02:24.274Z,99.93
2023-07-18T03:03:24.479Z,99.99
2023-07-18T03:04:24.242Z,99.99
2023-07-18T03:05:23.786Z,99.99
2023-07-18T03:06:23.254Z,99.99
2023-07-18T03:07:23.230Z,99.99
2023-07-18T03:08:23.225Z,99.93
2023-07-18T03:09:23.205Z,99.99
2023-07-18T03:10:23.201Z,99.99
2023-07-18T03:11:23.206Z,99.99
2023-07-18T03:12:25.777Z,99.99
2023-07-18T03:13:23.162Z,99.99
2023-07-18T03:14:25.761Z,99.99
2023-07-18T03:15:23.138Z,99.99
2023-07-18T03:16:23.152Z,99.99
2023-07-18T03:17:23.194Z,99.99
2023-07-18T03:18:23.141Z,99.99
2023-07-18T03:19:23.095Z,99.99
2023-07-18T03:20:23.088Z,99.99
2023-07-18T03:21:23.080Z,99.99
2023-07-18T03:22:23.062Z,99.99
2023-07-18T03:23:23.077Z,99.99
2023-07-18T03:24:23.053Z,99.99
2023-07-18T03:25:23.030Z,99.99
2023-07-18T03:26:23.742Z,99.99
2023-07-18T03:27:23.018Z,99.99
2023-07-18T03:28:23.274Z,99.99
2023-07-18T03:29:22.973Z,99.99
2023-07-18T03:30:23.001Z,99.99
2023-07-18T03:31:22.967Z,99.99
2023-07-18T03:32:22.974Z,99.99
2023-07-18T03:33:23.000Z,99.99
2023-07-18T03:34:22.949Z,99.99
2023-07-18T03:35:23.753Z,99.99
2023-07-18T03:36:25.759Z,99.99
2023-07-18T03:37:22.898Z,99.99
2023-07-18T03:38:25.776Z,99.99
2023-07-18T03:39:22.903Z,99.99
2023-07-18T03:40:23.743Z,99.99
2023-07-18T03:41:22.845Z,99.99
2023-07-18T03:42:22.838Z,99.99
2023-07-18T03:43:22.859Z,99.99
2023-07-18T03:44:23.278Z,99.99
2023-07-18T03:45:23.752Z,99.99
2023-07-18T03:46:23.032Z,99.99
2023-07-18T03:47:31.251Z,99.99
2023-07-18T03:48:22.811Z,99.99
2023-07-18T03:49:22.782Z,99.99
2023-07-18T03:50:22.769Z,99.99
2023-07-18T03:51:26.046Z,99.99
2023-07-18T03:52:23.246Z,99.99
2023-07-18T03:53:22.744Z,99.99
2023-07-18T03:54:22.712Z,99.99
2023-07-18T03:55:25.391Z,99.99
2023-07-18T03:56:22.793Z,99.99
2023-07-18T03:57:22.696Z,99.99
2023-07-18T03:58:23.244Z,99.99
2023-07-18T03:59:22.655Z,99.99
2023-07-18T04:00:23.694Z,99.99
2023-07-18T04:01:22.743Z,99.99
2023-07-18T04:02:22.656Z,99.99
2023-07-18T04:03:22.627Z,99.99
2023-07-18T04:04:23.625Z,99.99
2023-07-18T04:05:22.624Z,99.99
2023-07-18T04:06:22.588Z,99.99
2023-07-18T04:07:22.582Z,99.99
2023-07-18T04:08:22.559Z,99.99
2023-07-18T04:09:23.240Z,99.99
2023-07-18T04:10:23.264Z,99.99
2023-07-18T04:11:23.000Z,99.99
2023-07-18T04:12:22.976Z,99.99
2023-07-18T04:13:23.243Z,99.99
2023-07-18T04:14:24.270Z,99.99
2023-07-18T04:15:22.472Z,99.99
2023-07-18T04:16:25.655Z,99.99
2023-07-18T04:17:23.269Z,99.99
2023-07-18T04:18:22.474Z,99.99
2023-07-18T04:19:23.255Z,99.99
2023-07-18T04:20:22.422Z,99.99
2023-07-18T04:21:37.263Z,99.99
2023-07-18T04:22:22.404Z,99.99
2023-07-18T04:23:23.251Z,99.99
2023-07-18T04:24:22.793Z,99.99
2023-07-18T04:25:25.256Z,99.99
2023-07-18T04:26:22.360Z,99.99
2023-07-18T04:27:22.345Z,99.99
2023-07-18T04:28:22.355Z,99.99
2023-07-18T04:29:22.790Z,99.99
2023-07-18T04:30:22.335Z,99.99
2023-07-18T04:31:23.577Z,99.99
2023-07-18T04:32:22.302Z,99.99
2023-07-18T04:33:22.272Z,99.99
2023-07-18T04:34:22.273Z,99.99
2023-07-18T04:35:22.266Z,99.99
2023-07-18T04:36:22.275Z,99.99
2023-07-18T04:37:22.251Z,99.99
2023-07-18T04:38:36.767Z,99.99
2023-07-18T04:39:22.298Z,99.99
2023-07-18T04:40:36.746Z,99.99
2023-07-18T04:41:22.491Z,99.99
2023-07-18T04:42:22.193Z,99.99
2023-07-18T04:43:22.162Z,99.99
2023-07-18T04:44:24.790Z,99.68
2023-07-18T04:45:23.153Z,99.99
2023-07-18T04:46:22.201Z,99.99
2023-07-18T04:47:23.225Z,99.74
2023-07-18T04:48:22.188Z,99.94
2023-07-18T04:49:22.108Z,99.74
2023-07-18T04:50:22.101Z,99.94
2023-07-18T04:51:22.070Z,99.94
2023-07-18T04:52:22.750Z,99.99
2023-07-18T04:53:23.100Z,99.22
2023-07-18T04:54:22.039Z,99.22
2023-07-18T04:55:22.760Z,99.33
2023-07-18T04:56:22.031Z,99.02
2023-07-18T04:57:24.768Z,99.18
2023-07-18T04:58:22.005Z,99.49
2023-07-18T04:59:24.762Z,99.18
2023-07-18T05:00:21.972Z,99.49
2023-07-18T05:01:22.255Z,99.08
2023-07-18T05:02:21.962Z,99.18
2023-07-18T05:03:24.809Z,99.08
2023-07-18T05:04:22.012Z,99.49
2023-07-18T05:05:28.760Z,99.18
2023-07-18T05:06:24.766Z,99.38
2023-07-18T05:07:22.768Z,99.54
2023-07-18T05:08:22.755Z,99.33
2023-07-18T05:09:21.905Z,98.93
2023-07-18T05:10:22.762Z,98.63
2023-07-18T05:11:23.053Z,98.83
2023-07-18T05:12:21.846Z,97.81
2023-07-18T05:13:21.820Z,98.52
2023-07-18T05:14:21.828Z,98.43
2023-07-18T05:15:21.800Z,98.63
2023-07-18T05:16:22.805Z,97.87
2023-07-18T05:17:21.855Z,98.02
2023-07-18T05:18:21.770Z,98.02
2023-07-18T05:19:21.768Z,97.56
2023-07-18T05:20:21.757Z,97.77
2023-07-18T05:21:21.995Z,97.36
2023-07-18T05:22:21.747Z,97.47
2023-07-18T05:23:21.778Z,97.56
2023-07-18T05:24:21.703Z,97.56
2023-07-18T05:25:22.287Z,97.36
2023-07-18T05:26:24.259Z,97.06
2023-07-18T05:27:21.689Z,97.56
2023-07-18T05:28:22.258Z,97.36
2023-07-18T05:29:21.670Z,97.52
2023-07-18T05:30:21.678Z,97.36
2023-07-18T05:31:21.973Z,97.02
2023-07-18T05:32:21.742Z,97.02
2023-07-18T05:33:22.636Z,97.06
2023-07-18T05:34:21.595Z,97.32
2023-07-18T05:35:24.266Z,97.22
2023-07-18T05:36:21.584Z,97.02
2023-07-18T05:37:21.564Z,97.32
2023-07-18T05:38:22.260Z,97.32
2023-07-18T05:39:22.272Z,97.62
2023-07-18T05:40:22.709Z,97.32
2023-07-18T05:41:21.901Z,97.62
2023-07-18T05:42:21.512Z,97.27
2023-07-18T05:43:22.535Z,97.11
2023-07-18T05:44:21.773Z,97.47
2023-07-18T05:45:21.508Z,97.11
2023-07-18T05:46:21.479Z,96.66
2023-07-18T05:47:21.458Z,96.36
2023-07-18T05:48:21.457Z,96.66
2023-07-18T05:49:21.461Z,96.36
2023-07-18T05:50:22.258Z,96.77
2023-07-18T05:51:21.832Z,96.46
2023-07-18T05:52:21.388Z,96.87
2023-07-18T05:53:22.445Z,96.82
2023-07-18T05:54:21.366Z,96.82
2023-07-18T05:55:23.358Z,96.62
2023-07-18T05:56:21.349Z,96.82
2023-07-18T05:57:22.278Z,96.92
2023-07-18T05:58:21.362Z,96.92
2023-07-18T05:59:21.333Z,96.62
2023-07-18T06:00:22.267Z,96.22
2023-07-18T06:01:21.581Z,96.62
2023-07-18T06:02:22.259Z,96.51
2023-07-18T06:03:21.390Z,96.37
2023-07-18T06:04:21.376Z,96.17
2023-07-18T06:05:21.282Z,96.37
2023-07-18T06:06:22.285Z,96.27
2023-07-18T06:07:21.238Z,96.27
2023-07-18T06:08:21.227Z,96.17
2023-07-18T06:09:21.209Z,95.15
2023-07-18T06:10:21.201Z,95.36
2023-07-18T06:11:21.334Z,95.46
2023-07-18T06:12:21.170Z,95.56
2023-07-18T06:13:22.210Z,95.82
2023-07-18T06:14:21.173Z,95.92
2023-07-18T06:15:21.157Z,95.31
2023-07-18T06:16:21.171Z,95.31
2023-07-18T06:17:21.167Z,95.31
2023-07-18T06:18:21.981Z,95.11
2023-07-18T06:19:21.774Z,93.70
2023-07-18T06:20:21.779Z,93.70
2023-07-18T06:21:21.352Z,94.00
2023-07-18T06:22:21.056Z,93.08
2023-07-18T06:23:21.054Z,93.15
2023-07-18T06:24:21.049Z,92.54
2023-07-18T06:25:21.028Z,92.94
2023-07-18T06:26:21.032Z,93.75
2023-07-18T06:27:21.016Z,93.75
2023-07-18T06:28:20.987Z,93.85
2023-07-18T06:29:21.182Z,93.44
2023-07-18T06:30:20.984Z,93.24
2023-07-18T06:31:21.307Z,93.44
2023-07-18T06:32:20.946Z,93.65
2023-07-18T06:33:20.937Z,92.64
2023-07-18T06:34:21.962Z,92.40
2023-07-18T06:35:24.079Z,93.20
2023-07-18T06:36:20.977Z,92.29
2023-07-18T06:37:20.888Z,92.29
2023-07-18T06:38:20.875Z,91.58
2023-07-18T06:39:20.860Z,91.58
2023-07-18T06:40:20.897Z,90.98
2023-07-18T06:41:21.114Z,91.58
2023-07-18T06:42:20.840Z,91.89
2023-07-18T06:43:20.830Z,91.64
2023-07-18T06:44:20.814Z,91.54
2023-07-18T06:45:21.793Z,91.14
2023-07-18T06:46:20.869Z,91.34
2023-07-18T06:47:20.780Z,90.23
2023-07-18T06:48:20.770Z,89.83
2023-07-18T06:49:21.276Z,90.33
2023-07-18T06:50:20.762Z,90.19
2023-07-18T06:51:21.030Z,90.63
2023-07-18T06:52:20.798Z,90.19
2023-07-18T06:53:20.719Z,90.79
2023-07-18T06:54:20.718Z,91.30
2023-07-18T06:55:20.687Z,90.19
2023-07-18T06:56:20.684Z,90.28
2023-07-18T06:57:20.661Z,90.69
2023-07-18T06:58:20.796Z,90.19
2023-07-18T06:59:20.658Z,90.28
2023-07-18T07:00:21.653Z,90.24
2023-07-18T07:01:20.932Z,89.43
2023-07-18T07:02:20.753Z,89.64
2023-07-18T07:03:20.695Z,89.74
2023-07-18T07:04:20.684Z,90.14
2023-07-18T07:05:20.614Z,89.64
2023-07-18T07:06:20.564Z,89.50
2023-07-18T07:07:20.561Z,89.43
2023-07-18T07:08:20.795Z,90.30
2023-07-18T07:09:21.544Z,89.79
2023-07-18T07:10:20.553Z,89.70
2023-07-18T07:11:20.877Z,89.79
2023-07-18T07:12:34.569Z,89.39
2023-07-18T07:13:22.270Z,89.70
2023-07-18T07:14:21.518Z,89.03
2023-07-18T07:15:20.470Z,89.59
2023-07-18T07:16:20.486Z,89.79
2023-07-18T07:17:22.361Z,89.19
2023-07-18T07:18:20.423Z,88.79
2023-07-18T07:19:20.426Z,89.09
2023-07-18T07:20:20.417Z,89.59
2023-07-18T07:21:20.659Z,89.25
2023-07-18T07:22:20.383Z,89.65
2023-07-18T07:23:20.385Z,88.85
2023-07-18T07:24:21.319Z,88.04
2023-07-18T07:25:24.864Z,86.93
2023-07-18T07:26:20.340Z,87.03
2023-07-18T07:27:20.337Z,87.09
2023-07-18T07:28:20.362Z,86.99
2023-07-18T07:29:20.372Z,86.69
2023-07-18T07:30:20.331Z,87.09
2023-07-18T07:31:20.600Z,86.29
2023-07-18T07:32:21.325Z,86.69
2023-07-18T07:33:20.793Z,86.79
2023-07-18T07:34:26.771Z,85.84
2023-07-18T07:35:20.313Z,85.98
2023-07-18T07:36:20.793Z,85.28
2023-07-18T07:37:21.228Z,85.74
2023-07-18T07:38:20.221Z,86.44
2023-07-18T07:39:20.201Z,86.75
2023-07-18T07:40:20.298Z,86.35
2023-07-18T07:41:22.926Z,86.55
2023-07-18T07:42:24.781Z,86.35
2023-07-18T07:43:22.826Z,85.74
2023-07-18T07:44:20.138Z,86.44
2023-07-18T07:45:20.135Z,85.80
2023-07-18T07:46:20.268Z,86.30
2023-07-18T07:47:21.171Z,85.50
2023-07-18T07:48:20.771Z,85.10
2023-07-18T07:49:22.806Z,84.80
2023-07-18T07:50:20.815Z,84.59
2023-07-18T07:51:20.215Z,84.80
2023-07-18T07:52:20.297Z,84.69
2023-07-18T07:53:20.091Z,84.29
2023-07-18T07:54:20.039Z,83.39
2023-07-18T07:55:20.779Z,83.39
2023-07-18T07:56:20.770Z,82.74
2023-07-18T07:57:21.344Z,82.88
2023-07-18T07:58:20.771Z,83.04
2023-07-18T07:59:20.002Z,84.75
2023-07-18T08:00:20.158Z,83.04
2023-07-18T08:01:20.146Z,82.64
2023-07-18T08:02:22.997Z,83.25
2023-07-18T08:03:19.987Z,83.34
2023-07-18T08:04:20.784Z,83.14
2023-07-18T08:05:20.822Z,82.74
2023-07-18T08:06:22.785Z,82.74
2023-07-18T08:07:20.783Z,80.29
2023-07-18T08:08:19.888Z,80.49
2023-07-18T08:09:19.886Z,80.49
2023-07-18T08:10:22.809Z,79.68
2023-07-18T08:11:20.045Z,78.38
2023-07-18T08:12:20.798Z,78.27
2023-07-18T08:13:19.823Z,78.74
2023-07-18T08:14:19.803Z,79.04
2023-07-18T08:15:20.319Z,78.64
2023-07-18T08:16:19.892Z,78.64
2023-07-18T08:17:19.830Z,79.88
2023-07-18T08:18:19.791Z,80.05
2023-07-18T08:19:19.747Z,80.25
2023-07-18T08:20:22.338Z,79.85
2023-07-18T08:21:26.315Z,80.25
2023-07-18T08:22:19.801Z,80.15
2023-07-18T08:23:20.321Z,79.94
2023-07-18T08:24:19.695Z,76.09
2023-07-18T08:25:19.810Z,76.23
2023-07-18T08:26:20.683Z,77.20
2023-07-18T08:27:19.657Z,78.50
2023-07-18T08:28:19.987Z,78.80
2023-07-18T08:29:26.332Z,78.50
2023-07-18T08:30:22.321Z,79.30
2023-07-18T08:31:19.868Z,78.60
2023-07-18T08:32:43.336Z,77.90
2023-07-18T08:33:19.610Z,76.29
2023-07-18T08:34:21.656Z,73.74
2023-07-18T08:35:19.564Z,75.15
2023-07-18T08:36:19.680Z,73.54
2023-07-18T08:37:20.411Z,74.65
2023-07-18T08:38:23.325Z,74.74
2023-07-18T08:39:20.276Z,74.74
2023-07-18T08:40:19.529Z,75.25
2023-07-18T08:41:19.729Z,75.01
2023-07-18T08:42:19.518Z,74.81
2023-07-18T08:43:26.293Z,75.31
2023-07-18T08:44:19.503Z,74.51
2023-07-18T08:45:19.459Z,74.41
2023-07-18T08:46:20.582Z,74.51
2023-07-18T08:47:26.298Z,75.01
2023-07-18T08:48:19.567Z,74.21
2023-07-18T08:49:19.433Z,75.01
2023-07-18T08:50:19.458Z,75.21
2023-07-18T08:51:19.700Z,73.81
2023-07-18T08:52:22.355Z,74.41
2023-07-18T08:53:19.412Z,73.21
2023-07-18T08:54:19.391Z,74.91
2023-07-18T08:55:19.397Z,73.71
2023-07-18T08:56:19.373Z,73.91
2023-07-18T08:57:19.338Z,74.61
2023-07-18T08:58:19.367Z,75.31
2023-07-18T08:59:19.321Z,73.10
2023-07-18T09:00:19.327Z,72.37
2023-07-18T09:01:19.806Z,70.16
2023-07-18T09:02:19.290Z,69.76
2023-07-18T09:03:19.817Z,69.26
2023-07-18T09:04:19.324Z,70.76
2023-07-18T09:05:19.246Z,69.76
2023-07-18T09:06:19.315Z,70.86
2023-07-18T09:07:21.794Z,70.56
2023-07-18T09:08:19.226Z,70.26
2023-07-18T09:09:19.317Z,70.26
2023-07-18T09:10:19.829Z,70.16
2023-07-18T09:11:19.487Z,71.47
2023-07-18T09:12:19.195Z,71.66
2023-07-18T09:13:19.313Z,72.03
2023-07-18T09:14:19.159Z,71.23
2023-07-18T09:15:19.138Z,71.53
2023-07-18T09:16:19.133Z,68.52
2023-07-18T09:17:19.168Z,68.99
2023-07-18T09:18:19.106Z,67.88
2023-07-18T09:19:19.106Z,68.19
2023-07-18T09:20:19.101Z,67.88
2023-07-18T09:21:19.373Z,67.18
2023-07-18T09:22:19.082Z,68.62
2023-07-18T09:23:19.062Z,68.82
2023-07-18T09:24:19.324Z,69.02
2023-07-18T09:25:19.106Z,69.12
2023-07-18T09:26:19.029Z,69.22
2023-07-18T09:27:19.061Z,69.92
2023-07-18T09:28:21.815Z,69.82
2023-07-18T09:29:19.000Z,69.19
2023-07-18T09:30:19.827Z,68.59
2023-07-18T09:31:19.568Z,68.69
2023-07-18T09:32:19.019Z,67.88
2023-07-18T09:33:18.934Z,68.65
2023-07-18T09:34:18.944Z,67.85
2023-07-18T09:35:18.910Z,67.25
2023-07-18T09:36:18.897Z,66.02
2023-07-18T09:37:19.795Z,65.92
2023-07-18T09:38:18.871Z,65.62
2023-07-18T09:39:18.878Z,66.52
2023-07-18T09:40:19.006Z,66.09
2023-07-18T09:41:21.500Z,66.19
2023-07-18T09:43:18.845Z,66.89
2023-07-18T09:44:31.320Z,65.78
2023-07-18T09:45:19.816Z,64.98
2023-07-18T09:46:18.989Z,65.69
2023-07-18T09:47:19.293Z,66.09
2023-07-18T09:48:18.908Z,66.39
2023-07-18T09:49:18.764Z,65.59
2023-07-18T09:50:18.813Z,65.99
2023-07-18T09:51:33.303Z,66.05
2023-07-18T09:52:25.296Z,65.66
2023-07-18T09:53:18.753Z,67.02
2023-07-18T09:54:18.709Z,65.42
2023-07-18T09:55:18.702Z,63.32
2023-07-18T09:56:18.681Z,60.62
2023-07-18T09:57:18.688Z,62.70
2023-07-18T09:58:18.661Z,61.69
2023-07-18T09:59:18.671Z,63.29
2023-07-18T10:00:18.664Z,61.89
2023-07-18T10:01:19.005Z,62.29
2023-07-18T10:02:18.610Z,62.70
2023-07-18T10:03:18.657Z,63.26
2023-07-18T10:04:25.327Z,62.06
2023-07-18T10:05:18.587Z,62.06
2023-07-18T10:06:19.311Z,60.66
2023-07-18T10:07:18.586Z,63.26
2023-07-18T10:08:18.549Z,62.34
2023-07-18T10:09:25.304Z,62.43
2023-07-18T10:10:18.531Z,61.04
2023-07-18T10:11:18.990Z,62.16
2023-07-18T10:12:18.496Z,60.57
2023-07-18T10:13:19.029Z,62.59
2023-07-18T10:14:18.481Z,63.39
2023-07-18T10:15:19.300Z,63.39
2023-07-18T10:16:21.337Z,60.59
2023-07-18T10:17:19.334Z,61.62
2023-07-18T10:18:18.923Z,60.79
2023-07-18T10:19:18.447Z,60.02
2023-07-18T10:20:18.409Z,59.89
2023-07-18T10:21:18.874Z,59.52
2023-07-18T10:22:18.392Z,61.09
2023-07-18T10:23:18.502Z,60.49
2023-07-18T10:24:18.363Z,61.99
2023-07-18T10:25:18.379Z,60.59
2023-07-18T10:26:18.354Z,61.29
2023-07-18T10:27:18.339Z,61.09
2023-07-18T10:28:19.299Z,60.46
2023-07-18T10:29:18.470Z,60.86
2023-07-18T10:30:20.798Z,61.04
2023-07-18T10:31:18.565Z,60.50
2023-07-18T10:32:18.268Z,62.67
2023-07-18T10:33:18.269Z,57.98
2023-07-18T10:34:18.272Z,57.09
2023-07-18T10:35:18.339Z,59.15
2023-07-18T10:36:20.822Z,58.55
2023-07-18T10:37:18.290Z,57.65
2023-07-18T10:38:18.223Z,55.06
2023-07-18T10:39:18.803Z,54.09
2023-07-18T10:40:20.826Z,56.76
2023-07-18T10:41:18.506Z,55.04
2023-07-18T10:42:18.340Z,54.53
2023-07-18T10:43:18.810Z,55.21
2023-07-18T10:44:18.149Z,53.84
2023-07-18T10:45:18.155Z,54.71
2023-07-18T10:46:18.206Z,54.41
2023-07-18T10:47:18.216Z,54.31
2023-07-18T10:48:18.162Z,54.91
2023-07-18T10:49:18.099Z,53.11
2023-07-18T10:50:20.175Z,54.31
2023-07-18T10:51:18.357Z,55.83
2023-07-18T10:52:18.062Z,53.94
2023-07-18T10:53:18.061Z,55.76
2023-07-18T10:54:18.065Z,58.36
2023-07-18T10:55:18.026Z,55.81
2023-07-18T10:56:18.002Z,56.88
2023-07-18T10:57:18.014Z,55.62
2023-07-18T10:58:17.997Z,57.48
2023-07-18T10:59:17.983Z,57.28
2023-07-18T11:00:17.989Z,56.51
2023-07-18T11:01:24.945Z,57.28
2023-07-18T11:02:17.958Z,55.99
2023-07-18T11:03:17.936Z,57.28
2023-07-18T11:04:18.854Z,58.48
2023-07-18T11:05:17.938Z,57.26
2023-07-18T11:06:17.893Z,59.38
2023-07-18T11:07:17.890Z,57.28
2023-07-18T11:08:17.877Z,56.31
2023-07-18T11:09:19.654Z,57.01
2023-07-18T11:10:17.857Z,56.91
2023-07-18T11:11:18.185Z,56.71
2023-07-18T11:12:17.838Z,58.51
2023-07-18T11:13:17.839Z,56.74
2023-07-18T11:14:17.809Z,57.24
2023-07-18T11:15:17.795Z,59.04
2023-07-18T11:16:18.363Z,58.04
2023-07-18T11:17:17.812Z,57.14
2023-07-18T11:18:18.319Z,59.04
2023-07-18T11:19:17.858Z,57.34
2023-07-18T11:20:20.322Z,58.04
2023-07-18T11:21:20.808Z,57.41
2023-07-18T11:22:17.721Z,57.11
2023-07-18T11:23:17.846Z,55.91
2023-07-18T11:24:17.741Z,57.01
2023-07-18T11:25:18.323Z,57.61
2023-07-18T11:26:17.769Z,57.01
2023-07-18T11:27:17.687Z,58.41
2023-07-18T11:28:20.319Z,55.91
2023-07-18T11:29:17.665Z,57.81
2023-07-18T11:30:17.652Z,59.91
2023-07-18T11:31:23.587Z,59.98
2023-07-18T11:32:18.598Z,59.85
2023-07-18T11:33:17.695Z,56.85
2023-07-18T11:34:20.315Z,55.63
2023-07-18T11:35:17.600Z,59.39
2023-07-18T11:36:17.842Z,55.08
2023-07-18T11:37:18.321Z,57.54
2023-07-18T11:38:18.315Z,58.22
2023-07-18T11:39:20.009Z,56.89
2023-07-18T11:40:17.510Z,55.33
2023-07-18T11:41:17.881Z,56.82
2023-07-18T11:42:18.320Z,55.90
2023-07-18T11:43:18.338Z,57.59
2023-07-18T11:44:17.485Z,55.80
2023-07-18T11:45:19.933Z,56.99
2023-07-18T11:46:17.466Z,54.80
2023-07-18T11:47:20.334Z,55.90
2023-07-18T11:48:18.384Z,55.00
2023-07-18T11:49:17.437Z,53.81
2023-07-18T11:50:17.409Z,55.23
2023-07-18T11:51:18.161Z,55.10
2023-07-18T11:52:17.423Z,56.70
2023-07-18T11:53:17.381Z,55.30
2023-07-18T11:54:18.329Z,55.63
2023-07-18T11:55:18.349Z,57.22
2023-07-18T11:56:17.362Z,55.82
2023-07-18T11:57:17.342Z,57.49
2023-07-18T11:58:17.336Z,56.59
2023-07-18T11:59:17.314Z,55.77
2023-07-18T12:00:17.305Z,55.27
2023-07-18T12:01:17.809Z,55.40
2023-07-18T12:02:17.338Z,56.12
2023-07-18T12:03:23.997Z,55.73
2023-07-18T12:04:17.329Z,57.42
2023-07-18T12:05:17.564Z,55.73
2023-07-18T12:06:17.352Z,54.90
2023-07-18T12:07:17.219Z,55.40
2023-07-18T12:08:17.222Z,53.34
2023-07-18T12:09:17.195Z,54.79
2023-07-18T12:10:26.073Z,56.38
2023-07-18T12:11:17.189Z,55.78
2023-07-18T12:12:17.838Z,55.41
2023-07-18T12:13:19.844Z,55.51
2023-07-18T12:14:17.164Z,55.11
2023-07-18T12:15:17.151Z,55.08
2023-07-18T12:16:17.476Z,57.97
2023-07-18T12:17:17.121Z,58.01
2023-07-18T12:18:23.834Z,55.93
2023-07-18T12:19:17.837Z,57.82
2023-07-18T12:20:17.829Z,54.93
2023-07-18T12:21:23.857Z,56.75
2023-07-18T12:22:17.081Z,55.38
2023-07-18T12:23:17.074Z,56.18
2023-07-18T12:24:17.036Z,58.57
2023-07-18T12:25:17.839Z,57.17
2023-07-18T12:26:17.012Z,57.94
2023-07-18T12:27:17.364Z,54.73
2023-07-18T12:28:17.831Z,55.40
2023-07-18T12:29:17.055Z,55.50
2023-07-18T12:30:16.969Z,55.60
2023-07-18T12:31:17.312Z,54.60
2023-07-18T12:32:17.034Z,53.61
2023-07-18T12:33:17.887Z,55.38
2023-07-18T12:34:16.951Z,54.55
2023-07-18T12:35:16.910Z,54.28
2023-07-18T12:36:20.032Z,52.07
2023-07-18T12:37:18.934Z,52.96
2023-07-18T12:38:18.864Z,53.06
2023-07-18T12:39:16.884Z,53.06
2023-07-18T12:40:17.927Z,53.16
2023-07-18T12:41:16.898Z,53.73
2023-07-18T12:42:16.872Z,52.96
2023-07-18T12:43:16.829Z,53.71
2023-07-18T12:44:16.817Z,55.60
2023-07-18T12:45:17.338Z,52.69
2023-07-18T12:46:23.590Z,53.11
2023-07-18T12:47:16.787Z,55.97
2023-07-18T12:48:16.793Z,53.06
2023-07-18T12:49:56.397Z,53.76
2023-07-18T12:50:17.768Z,54.35
2023-07-18T12:51:16.747Z,53.49
2023-07-18T12:52:17.358Z,53.74
2023-07-18T12:53:19.363Z,55.73